createdAt,value
2019-01-13T00:00:03.385Z,1012.4
2019-01-13T00:05:02.804Z,1012.3
2019-01-13T00:10:03.252Z,1012.39
2019-01-13T00:15:02.692Z,1012.31
2019-01-13T00:20:02.314Z,1012.25
2019-01-13T00:25:02.625Z,1012.44
2019-01-13T00:30:02.974Z,1012.5
2019-01-13T00:35:02.496Z,1012.34
2019-01-13T00:40:02.976Z,1012.39
2019-01-13T00:45:02.398Z,1012.32
2019-01-13T00:50:02.806Z,1012.18
2019-01-13T00:55:03.250Z,1012.23
2019-01-13T01:00:02.654Z,1012.15
2019-01-13T01:05:02.404Z,1012.08
2019-01-13T01:10:02.832Z,1012.09
2019-01-13T01:15:03.184Z,1012.19
2019-01-13T01:20:02.517Z,1012.15
2019-01-13T01:25:02.939Z,1012.0
2019-01-13T01:30:03.279Z,1011.92
2019-01-13T01:35:02.708Z,1011.99
2019-01-13T01:40:03.175Z,1011.98
2019-01-13T01:45:02.598Z,1011.97
2019-01-13T01:50:03.011Z,1011.91
2019-01-13T01:55:02.428Z,1011.67
2019-01-13T02:00:02.868Z,1011.52
2019-01-13T02:05:03.209Z,1011.35
2019-01-13T02:10:02.624Z,1011.38
2019-01-13T02:15:02.987Z,1011.4
2019-01-13T02:20:02.391Z,1011.42
2019-01-13T02:25:02.713Z,1011.34
2019-01-13T02:30:03.072Z,1011.34
2019-01-13T02:35:02.493Z,1011.37
2019-01-13T02:40:02.931Z,1011.38
2019-01-13T02:45:03.271Z,1011.56
2019-01-13T02:50:02.713Z,1011.59
2019-01-13T02:55:03.166Z,1011.57
2019-01-13T03:00:02.544Z,1011.55
2019-01-13T03:05:02.891Z,1011.48
2019-01-13T03:10:03.336Z,1011.26
2019-01-13T03:15:02.756Z,1011.0
2019-01-13T03:20:03.226Z,1010.75
2019-01-13T03:25:02.619Z,1010.68
2019-01-13T03:30:02.972Z,1010.73
2019-01-13T03:35:02.383Z,1010.7
2019-01-13T03:40:02.828Z,1010.43
2019-01-13T03:45:03.303Z,1010.27
2019-01-13T03:50:02.916Z,1010.29
2019-01-13T03:55:03.336Z,1010.29
2019-01-13T04:00:02.743Z,1010.29
2019-01-13T04:05:03.089Z,1010.16
2019-01-13T04:10:02.508Z,1010.03
2019-01-13T04:15:02.862Z,1009.78
2019-01-13T04:20:03.300Z,1009.71
2019-01-13T04:25:02.703Z,1009.68
2019-01-13T04:30:03.039Z,1009.58
2019-01-13T04:35:02.475Z,1009.24
2019-01-13T04:40:03.034Z,1009.23
2019-01-13T04:45:02.446Z,1009.04
2019-01-13T04:50:02.916Z,1008.87
2019-01-13T04:55:03.330Z,1008.86
2019-01-13T05:00:02.749Z,1008.72
2019-01-13T05:05:03.093Z,1008.53
2019-01-13T05:10:02.477Z,1008.54
2019-01-13T05:15:02.846Z,1008.45
2019-01-13T05:20:03.193Z,1008.42
2019-01-13T05:25:02.619Z,1008.42
2019-01-13T05:30:01.876Z,1008.39
2019-01-13T05:35:03.292Z,1008.41
2019-01-13T05:40:02.742Z,1008.36
2019-01-13T05:45:03.160Z,1008.36
2019-01-13T05:50:02.870Z,1008.28
2019-01-13T05:55:03.225Z,1008.27
2019-01-13T06:00:02.635Z,1008.27
2019-01-13T06:05:02.979Z,1008.08
2019-01-13T06:10:02.398Z,1008.08
2019-01-13T06:15:02.739Z,1007.85
2019-01-13T06:20:03.085Z,1007.87
2019-01-13T06:25:02.501Z,1007.8
2019-01-13T06:30:02.944Z,1007.77
2019-01-13T06:35:03.327Z,1007.72
2019-01-13T06:40:02.836Z,1007.7
2019-01-13T06:45:03.258Z,1007.57
2019-01-13T06:50:02.653Z,1007.59
2019-01-13T06:55:03.005Z,1007.57
2019-01-13T07:00:02.331Z,1007.53
2019-01-13T07:05:02.667Z,1007.44
2019-01-13T07:10:03.114Z,1007.35
2019-01-13T07:15:02.522Z,1007.32
2019-01-13T07:20:02.872Z,1007.26
2019-01-13T07:25:03.315Z,1007.22
2019-01-13T07:30:02.718Z,1007.25
2019-01-13T07:35:03.055Z,1007.28
2019-01-13T07:40:02.490Z,1007.15
2019-01-13T07:45:02.847Z,1007.09
2019-01-13T07:50:03.285Z,1007.09
2019-01-13T07:55:01.806Z,1007.21
2019-01-13T08:00:03.438Z,1007.16
2019-01-13T08:05:02.864Z,1007.12
2019-01-13T08:10:03.306Z,1007.15
2019-01-13T08:15:02.718Z,1007.03
2019-01-13T08:20:03.066Z,1007.06
2019-01-13T08:25:02.488Z,1007.03
2019-01-13T08:30:02.934Z,1006.87
2019-01-13T08:35:03.309Z,1006.81
2019-01-13T08:40:02.789Z,1006.75
2019-01-13T08:45:03.176Z,1006.85
2019-01-13T08:50:02.587Z,1006.69
2019-01-13T08:55:02.996Z,1006.62
2019-01-13T09:00:02.724Z,1006.62
2019-01-13T09:05:03.182Z,1006.59
2019-01-13T09:10:02.680Z,1006.6
2019-01-13T09:15:03.043Z,1006.49
2019-01-13T09:20:02.447Z,1006.5
2019-01-13T09:25:02.895Z,1006.25
2019-01-13T09:30:03.331Z,1006.18
2019-01-13T09:35:02.767Z,1006.23
2019-01-13T09:40:03.200Z,1006.12
2019-01-13T09:45:02.613Z,1006.06
2019-01-13T09:50:03.094Z,1006.09
2019-01-13T09:55:02.506Z,1006.09
2019-01-13T10:00:02.965Z,1006.15
2019-01-13T10:05:03.367Z,1006.16
2019-01-13T10:10:02.778Z,1006.1
2019-01-13T10:15:03.126Z,1006.04
2019-01-13T10:20:02.462Z,1006.02
2019-01-13T10:25:02.793Z,1005.83
2019-01-13T10:30:03.237Z,1005.66
2019-01-13T10:35:02.690Z,1005.51
2019-01-13T10:40:03.413Z,1005.43
2019-01-13T10:45:02.013Z,1005.45
2019-01-13T10:50:02.464Z,1005.35
2019-01-13T10:55:03.186Z,1005.25
2019-01-13T11:00:02.594Z,1005.29
2019-01-13T11:05:02.953Z,1005.16
2019-01-13T11:10:02.365Z,1005.12
2019-01-13T11:15:02.708Z,1005.07
2019-01-13T11:20:03.149Z,1005.14
2019-01-13T11:25:02.567Z,1004.86
2019-01-13T11:30:02.910Z,1004.8
2019-01-13T11:35:03.395Z,1004.54
2019-01-13T11:40:02.885Z,1004.55
2019-01-13T11:45:03.321Z,1004.42
2019-01-13T11:50:02.740Z,1004.39
2019-01-13T11:55:03.189Z,1004.22
2019-01-13T12:00:02.588Z,1004.22
2019-01-13T12:05:02.967Z,1004.18
2019-01-13T12:10:02.462Z,1004.17
2019-01-13T12:15:02.843Z,1004.01
2019-01-13T12:20:03.482Z,1003.92
2019-01-13T12:25:02.826Z,1003.97
2019-01-13T12:30:03.218Z,1003.97
2019-01-13T12:35:02.631Z,1003.8
2019-01-13T12:40:03.077Z,1003.72
2019-01-13T12:45:02.482Z,1003.76
2019-01-13T12:50:02.835Z,1003.65
2019-01-13T12:55:03.185Z,1003.43
2019-01-13T13:00:02.586Z,1003.37
2019-01-13T13:05:02.944Z,1003.24
2019-01-13T13:10:02.357Z,1003.04
2019-01-13T13:15:02.811Z,1003.08
2019-01-13T13:20:03.278Z,1003.04
2019-01-13T13:25:02.665Z,1002.95
2019-01-13T13:30:03.027Z,1002.9
2019-01-13T13:35:02.416Z,1002.78
2019-01-13T13:40:02.868Z,1002.69
2019-01-13T13:45:03.352Z,1002.61
2019-01-13T13:50:02.761Z,1002.58
2019-01-13T13:55:03.180Z,1002.62
2019-01-13T14:00:01.770Z,1002.48
2019-01-13T14:05:03.130Z,1002.42
2019-01-13T14:10:02.543Z,1002.42
2019-01-13T14:15:03.102Z,1002.44
2019-01-13T14:20:02.439Z,1002.47
2019-01-13T14:25:02.869Z,1002.42
2019-01-13T14:30:03.240Z,1002.61
2019-01-13T14:35:02.648Z,1002.58
2019-01-13T14:40:03.073Z,1002.45
2019-01-13T14:45:02.530Z,1002.38
2019-01-13T14:50:02.915Z,1002.36
2019-01-13T14:55:03.288Z,1002.38
2019-01-13T15:00:02.688Z,1002.41
2019-01-13T15:05:03.023Z,1002.42
2019-01-13T15:10:02.540Z,1002.44
2019-01-13T15:15:02.999Z,1002.33
2019-01-13T15:20:02.406Z,1002.39
2019-01-13T15:25:02.754Z,1002.22
2019-01-13T15:30:03.194Z,1002.3
2019-01-13T15:35:02.609Z,1002.29
2019-01-13T15:40:03.096Z,1002.16
2019-01-13T15:45:02.558Z,1002.23
2019-01-13T15:50:02.926Z,1002.19
2019-01-13T15:55:03.363Z,1002.13
2019-01-13T16:00:02.773Z,1002.12
2019-01-13T16:05:03.122Z,1002.06
2019-01-13T16:10:02.532Z,1002.05
2019-01-13T16:15:02.989Z,1001.89
2019-01-13T16:20:02.404Z,1002.02
2019-01-13T16:25:02.757Z,1001.99
2019-01-13T16:30:03.192Z,1001.89
2019-01-13T16:35:02.595Z,1001.72
2019-01-13T16:40:03.049Z,1001.65
2019-01-13T16:45:02.389Z,1001.68
2019-01-13T16:50:02.805Z,1001.51
2019-01-13T16:55:03.145Z,1001.83
2019-01-13T17:00:02.560Z,1001.69
2019-01-13T17:05:02.872Z,1001.58
2019-01-13T17:10:03.350Z,1001.73
2019-01-13T17:15:02.775Z,1001.66
2019-01-13T17:20:03.163Z,1001.63
2019-01-13T17:25:02.518Z,1001.75
2019-01-13T17:30:02.912Z,1001.72
2019-01-13T17:35:03.337Z,1001.83
2019-01-13T17:40:02.725Z,1001.82
2019-01-13T17:45:03.078Z,1001.84
2019-01-13T17:50:02.404Z,1001.87
2019-01-13T17:55:02.831Z,1001.97
2019-01-13T18:00:07.367Z,1001.92
2019-01-13T18:05:02.796Z,1001.99
2019-01-13T18:10:03.277Z,1002.03
2019-01-13T18:15:02.708Z,1002.19
2019-01-13T18:20:03.110Z,1001.98
2019-01-13T18:25:02.549Z,1002.11
2019-01-13T18:30:02.967Z,1002.02
2019-01-13T18:35:03.309Z,1002.14
2019-01-13T18:40:02.729Z,1002.16
2019-01-13T18:45:03.070Z,1002.24
2019-01-13T18:50:02.484Z,1002.29
2019-01-13T18:55:02.848Z,1002.49
2019-01-13T19:00:03.275Z,1002.43
2019-01-13T19:05:02.695Z,1002.4
2019-01-13T19:10:03.205Z,1002.48
2019-01-13T19:15:02.568Z,1002.59
2019-01-13T19:20:03.009Z,1002.76
2019-01-13T19:25:02.495Z,1002.58
2019-01-13T19:30:02.890Z,1002.61
2019-01-13T19:35:04.782Z,1002.64
2019-01-13T19:40:02.457Z,1002.75
2019-01-13T19:45:02.864Z,1002.84
2019-01-13T19:50:02.400Z,1002.81
2019-01-13T19:55:02.871Z,1002.89
2019-01-13T20:00:03.374Z,1002.94
2019-01-13T20:05:02.790Z,1002.82
2019-01-13T20:10:03.227Z,1002.84
2019-01-13T20:15:02.671Z,1002.84
2019-01-13T20:20:03.106Z,1003.19
2019-01-13T20:25:02.530Z,1003.11
2019-01-13T20:30:03.056Z,1003.26
2019-01-13T20:35:02.493Z,1003.35
2019-01-13T20:40:02.917Z,1003.34
2019-01-13T20:45:03.401Z,1003.35
2019-01-13T20:50:02.784Z,1003.43
2019-01-13T20:55:03.160Z,1003.53
2019-01-13T21:00:02.574Z,1003.49
2019-01-13T21:05:02.985Z,1003.53
2019-01-13T21:10:02.401Z,1003.64
2019-01-13T21:15:02.853Z,1003.71
2019-01-13T21:20:03.291Z,1003.53
2019-01-13T21:25:02.713Z,1003.56
2019-01-13T21:30:03.051Z,1003.53
2019-01-13T21:35:02.393Z,1003.59
2019-01-13T21:40:02.818Z,1003.66
2019-01-13T21:45:03.259Z,1003.76
2019-01-13T21:50:02.664Z,1003.85
2019-01-13T21:55:03.042Z,1003.92
2019-01-13T22:00:02.434Z,1003.84
2019-01-13T22:05:02.876Z,1003.89
2019-01-13T22:10:03.325Z,1004.0
2019-01-13T22:15:02.741Z,1003.94
2019-01-13T22:20:03.184Z,1004.0
2019-01-13T22:25:06.701Z,1004.04
2019-01-13T22:30:03.492Z,1003.98
2019-01-13T22:35:02.910Z,1004.12
2019-01-13T22:40:03.420Z,1004.16
2019-01-13T22:45:03.057Z,1004.33
2019-01-13T22:50:02.460Z,1004.34
2019-01-13T22:55:02.904Z,1004.46
2019-01-13T23:00:03.252Z,1004.47
2019-01-13T23:05:02.689Z,1004.56
2019-01-13T23:10:03.111Z,1004.65
2019-01-13T23:15:02.525Z,1004.56
2019-01-13T23:20:02.871Z,1004.63
2019-01-13T23:25:03.317Z,1004.74
2019-01-13T23:30:02.726Z,1004.71
2019-01-13T23:35:02.345Z,1004.68
2019-01-13T23:40:02.828Z,1004.74
2019-01-13T23:45:03.270Z,1004.81
2019-01-13T23:50:02.665Z,1004.85
2019-01-13T23:55:03.103Z,1004.87
